Stations météo

réclame
Mon MeteoGroup
Arroyo Del Ojanco, Espagne (8352): Température de l'air & dewpoint: 11.02.2018 20:00:00 - 17.02.2018 20:00:00 (CET)Arroyo Del Ojanco, Espagne (8352): Vitesse du vent & gusts: 11.02.2018 20:00:00 - 17.02.2018 20:00:00 (CET)Arroyo Del Ojanco, Espagne (8352): Direction du vent: 11.02.2018 20:00:00 - 17.02.2018 20:00:00 (CET)Arroyo Del Ojanco, Espagne (8352): Quantités de précipitations: 11.02.2018 20:00:00 - 17.02.2018 20:00:00 (CET)
Date & Time tt [°C] td [°C] ff [km/h] ff [knt] fx [km/h] fx [knt] dd rr [mm]
17.02.2018 20:00:00 13,6 3,1 6 3 18 10 ENE 0,0
17.02.2018 19:00:00 14,0 3,5 5 3 17 9 NE -
17.02.2018 18:00:00 17,4 4,0 3 1 15 8 NNW 0,0
17.02.2018 17:00:00 16,4 4,1 1 0 8 5 NNE 0,0
17.02.2018 16:00:00 17,2 4,5 1 0 16 9 SW 0,0
17.02.2018 15:00:00 17,6 4,9 5 3 14 8 W 0,0
17.02.2018 14:00:00 16,5 4,9 5 3 16 9 NW 0,0
17.02.2018 13:00:00 15,9 5,8 3 1 11 6 W -
17.02.2018 12:00:00 13,6 7,2 3 2 7 4 WNW 0,0
17.02.2018 11:00:00 10,5 7,6 0 0 8 5 W 0,0
17.02.2018 10:00:00 7,9 7,8 0 0 0 0 N 0,0
17.02.2018 09:00:00 5,1 5,0 0 0 0 0 N 0,0
17.02.2018 08:00:00 4,5 4,4 0 0 7 4 N 0,0
17.02.2018 07:00:00 5,0 4,9 0 0 9 5 N -
17.02.2018 06:00:00 5,6 5,5 0 0 7 4 NE 0,0
17.02.2018 05:00:00 6,3 6,2 0 0 6 3 N 0,0
17.02.2018 04:00:00 6,4 6,1 0 0 7 4 N 0,0
17.02.2018 03:00:00 7,2 6,6 2 1 6 4 S 0,0
17.02.2018 02:00:00 8,1 7,2 0 0 0 0 N 0,0
17.02.2018 01:00:00 9,0 7,6 0 0 0 0 N -
17.02.2018 00:00:00 9,9 7,8 0 0 5 3 N 0,0
16.02.2018 23:00:00 10,1 7,2 0 0 9 5 N 0,0
16.02.2018 22:00:00 11,5 6,8 7 4 9 5 ESE 0,0
16.02.2018 21:00:00 12,7 6,3 4 2 11 6 NE 0,0
16.02.2018 20:00:00 14,5 6,8 7 4 11 6 NE 0,0
16.02.2018 19:00:00 16,0 7,0 4 2 10 6 NE -
16.02.2018 18:00:00 19,6 7,0 3 2 15 8 WSW 0,0
16.02.2018 17:00:00 19,5 6,9 10 5 16 9 WSW 0,0
16.02.2018 16:00:00 19,8 7,9 9 5 20 11 SW 0,0
16.02.2018 15:00:00 19,5 7,6 6 3 15 8 SW 0,0
16.02.2018 14:00:00 18,0 8,0 8 4 15 8 SW 0,0
16.02.2018 13:00:00 17,1 8,3 3 1 9 5 WSW -
16.02.2018 12:00:00 13,8 8,0 1 0 13 7 NNW 0,0
16.02.2018 11:00:00 11,4 7,9 6 4 16 9 NNE 0,0
16.02.2018 10:00:00 8,7 7,8 9 5 16 9 NE 0,0
16.02.2018 09:00:00 6,7 6,6 0 0 11 6 NNE 0,0
16.02.2018 08:00:00 6,5 6,4 0 0 6 3 N 0,0
16.02.2018 07:00:00 7,7 7,4 1 1 10 5 NNW -
16.02.2018 06:00:00 7,4 7,1 6 3 13 7 ENE 0,0
16.02.2018 05:00:00 7,9 7,6 9 5 12 7 NE 0,0
16.02.2018 04:00:00 7,4 6,8 0 0 0 0 N 0,0
16.02.2018 03:00:00 8,6 7,4 0 0 10 5 E 0,0
16.02.2018 02:00:00 9,1 7,7 6 3 11 6 ENE 0,0
16.02.2018 01:00:00 9,5 7,6 0 0 13 7 E -
16.02.2018 00:00:00 9,7 7,8 4 2 10 5 NE 0,0
15.02.2018 23:00:00 10,7 7,6 5 3 10 6 NE 0,0
15.02.2018 22:00:00 11,9 7,6 6 4 13 7 NE 0,0
15.02.2018 21:00:00 12,0 7,3 0 0 8 4 N 0,0
15.02.2018 20:00:00 14,1 7,4 3 2 10 5 NNE 0,0
15.02.2018 19:00:00 16,4 6,8 1 1 9 5 WNW -
15.02.2018 18:00:00 19,1 7,2 2 1 11 6 SW 0,0
15.02.2018 17:00:00 18,7 7,2 7 4 14 7 WSW 0,0
15.02.2018 16:00:00 18,1 6,9 0 0 12 7 NE 0,0
15.02.2018 15:00:00 17,7 7,2 1 0 13 7 NNW 0,0
15.02.2018 14:00:00 16,2 6,9 6 3 16 9 NW 0,0
15.02.2018 13:00:00 14,1 6,0 9 5 18 10 NNE -
15.02.2018 12:00:00 13,3 6,0 9 5 16 9 NNE 0,0
15.02.2018 11:00:00 11,5 6,2 3 1 13 7 NNE 0,0
15.02.2018 10:00:00 9,3 6,0 9 5 14 8 NNE 0,0
15.02.2018 09:00:00 7,8 6,4 0 0 5 3 N 0,0
15.02.2018 08:00:00 7,5 6,6 1 0 8 4 NE 0,0
15.02.2018 07:00:00 7,1 6,2 0 0 9 5 NNE -
15.02.2018 06:00:00 7,4 6,0 0 0 6 3 N 0,0
15.02.2018 05:00:00 7,0 5,8 1 0 8 4 N 0,0
15.02.2018 04:00:00 7,1 5,7 4 2 8 5 SSE 0,0
15.02.2018 03:00:00 7,2 5,4 0 0 11 6 SSW 0,0
15.02.2018 02:00:00 7,7 5,0 0 0 0 0 N 0,0
15.02.2018 01:00:00 7,9 5,0 0 0 0 0 N -
15.02.2018 00:00:00 8,2 4,8 0 0 5 3 N 0,0
14.02.2018 23:00:00 7,8 4,6 4 2 9 5 NNE 0,0
14.02.2018 22:00:00 7,9 3,9 0 0 13 7 N 0,0
14.02.2018 21:00:00 9,1 3,5 9 5 13 7 SSE 0,0
14.02.2018 20:00:00 9,4 3,4 8 5 12 6 SSE 0,0
14.02.2018 19:00:00 11,2 3,3 3 2 7 4 SSW -
14.02.2018 18:00:00 11,3 3,1 5 3 13 7 SSW 0,0
14.02.2018 17:00:00 11,6 2,9 10 5 16 8 SW 0,0
14.02.2018 16:00:00 11,7 2,7 8 4 19 10 SW 0,0
14.02.2018 15:00:00 11,4 2,4 10 5 20 11 SW 0,0
14.02.2018 14:00:00 11,0 2,3 5 3 22 12 WSW 0,0
14.02.2018 13:00:00 10,2 2,3 11 6 19 11 SW -
14.02.2018 12:00:00 8,7 1,6 8 4 13 7 WSW 0,0
14.02.2018 11:00:00 7,7 2,0 7 4 11 6 SW 0,0
14.02.2018 10:00:00 5,5 3,5 0 0 7 4 N 0,0
14.02.2018 09:00:00 4,7 3,2 0 0 4 2 N 0,0
14.02.2018 08:00:00 4,6 2,8 0 0 8 4 N 0,0
14.02.2018 07:00:00 6,1 1,3 1 1 11 6 W -
14.02.2018 06:00:00 5,0 0,8 1 1 9 5 NNE 0,0
14.02.2018 05:00:00 5,0 0,2 3 2 8 5 S 0,0
14.02.2018 04:00:00 5,7 0,9 6 3 9 5 S 0,0
14.02.2018 03:00:00 5,7 1,3 4 2 8 4 SSW 0,0
14.02.2018 02:00:00 5,5 0,7 0 0 18 10 N 0,0
14.02.2018 01:00:00 5,3 0,9 6 3 13 7 SSW -
14.02.2018 00:00:00 5,5 -0,1 4 2 13 7 SW 0,0
13.02.2018 23:00:00 5,8 -0,5 7 4 16 9 SSW 0,0
13.02.2018 22:00:00 6,5 0,0 11 6 16 9 S 0,0
13.02.2018 21:00:00 6,0 -0,9 0 0 16 9 N 0,0
13.02.2018 20:00:00 7,4 -1,0 12 6 18 10 S 0,0
13.02.2018 19:00:00 8,1 -1,4 11 6 25 14 SSW -
13.02.2018 18:00:00 10,2 -0,9 14 7 33 18 WSW 0,0
13.02.2018 17:00:00 10,6 -1,1 19 10 33 18 SW 0,0
13.02.2018 16:00:00 10,4 -1,0 21 12 41 22 SW 0,0
13.02.2018 15:00:00 10,2 -0,9 23 13 42 23 SW 0,0
13.02.2018 14:00:00 10,0 -0,8 21 11 36 19 SW 0,0
13.02.2018 13:00:00 9,1 -1,6 18 10 31 17 WSW -
13.02.2018 12:00:00 7,7 0,0 9 5 21 11 SSW 0,0
13.02.2018 11:00:00 4,9 3,7 1 1 8 4 SW 0,0
13.02.2018 10:00:00 2,2 2,1 0 0 0 0 N 0,0
13.02.2018 09:00:00 0,0 -0,1 0 0 0 0 N 0,0
13.02.2018 08:00:00 -0,2 -0,3 0 0 0 0 N 0,0
13.02.2018 07:00:00 -0,6 -0,7 0 0 0 0 N -
13.02.2018 06:00:00 0,3 0,2 0 0 8 4 NNE 0,0
13.02.2018 05:00:00 0,5 0,4 0 0 0 0 N 0,0
13.02.2018 04:00:00 0,5 0,2 0 0 0 0 N 0,0
13.02.2018 03:00:00 0,9 0,3 0 0 0 0 N 0,0
13.02.2018 02:00:00 1,9 1,2 0 0 0 0 NNE 0,0
13.02.2018 01:00:00 2,7 1,7 0 0 0 0 N -
13.02.2018 00:00:00 3,0 1,5 0 0 0 0 N 0,0
12.02.2018 23:00:00 3,8 1,7 0 0 0 0 N 0,0
12.02.2018 22:00:00 4,5 1,2 0 0 9 5 N 0,0
12.02.2018 21:00:00 4,8 1,3 1 1 11 6 ESE 0,0
12.02.2018 20:00:00 6,8 2,3 4 2 12 7 ENE 0,0
12.02.2018 19:00:00 7,9 4,5 0 0 1 0 E -
12.02.2018 18:00:00 9,2 5,0 0 0 5 3 N 0,0
12.02.2018 17:00:00 8,4 6,5 4 2 13 7 NE 0,1
12.02.2018 16:00:00 7,9 7,2 1 1 11 6 N 0,7
12.02.2018 15:00:00 7,6 7,2 0 0 27 15 N 3,8
12.02.2018 14:00:00 8,9 8,0 18 10 29 16 SSW 0,2
12.02.2018 13:00:00 8,9 8,6 14 8 27 14 SW -
12.02.2018 12:00:00 8,8 8,7 11 6 21 12 SSW 1,8
12.02.2018 11:00:00 8,3 8,2 11 6 20 11 SW 2,1
12.02.2018 10:00:00 8,2 8,1 10 5 21 12 SSW 0,7
12.02.2018 09:00:00 8,2 8,1 10 6 21 11 SW 0,1
12.02.2018 08:00:00 8,1 7,8 13 7 25 14 SW 0,0
12.02.2018 07:00:00 8,4 7,5 12 6 26 14 SW -
12.02.2018 06:00:00 8,7 6,5 6 3 21 11 SW 0,0
12.02.2018 05:00:00 8,9 5,8 9 5 18 10 SW 0,0
12.02.2018 04:00:00 8,9 5,5 0 0 10 5 W 0,0
12.02.2018 03:00:00 9,2 5,4 2 1 16 9 SW 0,0
12.02.2018 02:00:00 9,3 4,7 4 2 26 14 SW 0,0
12.02.2018 01:00:00 9,8 4,6 14 8 29 16 SSW -
12.02.2018 00:00:00 10,2 3,9 15 8 29 15 SSW 0,0
11.02.2018 23:00:00 10,6 2,7 13 7 29 16 SSW 0,0
11.02.2018 22:00:00 10,7 1,3 11 6 20 11 SSW 0,0
11.02.2018 21:00:00 9,7 0,1 7 4 15 8 S 0,0
11.02.2018 20:00:00 9,8 -0,4 4 2 13 7 S 0,0

tt = Température de l'air
td = dewpoint
ff = Vitesse du vent
fx = gusts
dd = Direction du vent
rr = Quantités de précipitations

stations d'obs. à proximité